Brooklyn — WDA8190 — position and weather

sailwx.info

Track history (hours):
 
Tides and Currents Weather Stations Pressure Air Temp Water Temp Dewpoint Dewpoint Depression Visibility Wind Speed Wind Dir Waves Ship Positions

Brooklyn

Owner: PORT IMPERIAL FERRY CORP, WEEHAWKEN, NJ. More information available from US FCC via Universal Licensing System.

Last reported at 2017-Dec-11 15:23 UTC. Time now 2017-Dec-11 19:11 UTC.
Position N 40°46' W 074°01'.

Length 19 m.

Type: Passenger vessel. MMSI: 366851670.

Date/timePositionNaut miles runAvg speedWind from/ knotsBaromVisibWave heightAir tempDewpointWater temp
2017-Dec-11 15:23N 40°46' W 074°01'2 6.0
2017-Dec-11 15:00N 40°44' W 074°02'1 2.5
2017-Dec-11 14:31N 40°43' W 074°01'1 2.4
2017-Dec-11 14:00N 40°44' W 074°02'1 2.5
2017-Dec-11 13:31N 40°43' W 074°01'1 2.4
2017-Dec-11 13:00N 40°44' W 074°02'1 2.3
2017-Dec-11 12:30N 40°43' W 074°01'1 2.4
2017-Dec-11 12:00N 40°44' W 074°02'1 2.5
2017-Dec-11 11:30N 40°43' W 074°01'1 2.5
2017-Dec-11 11:00N 40°44' W 074°02'2 0.0
2017-Dec-09 10:55N 40°46' W 074°01'0 0.0
2017-Dec-09 10:30N 40°46' W 074°01'0 0.0
2017-Dec-09 10:00N 40°46' W 074°01'0 0.0
2017-Dec-09 09:30N 40°46' W 074°01'0 0.0
2017-Dec-09 08:59N 40°46' W 074°01'0 0.0
2017-Dec-09 08:30N 40°46' W 074°01'0 0.0
2017-Dec-09 08:00N 40°46' W 074°01'0 0.0
2017-Dec-09 07:29N 40°46' W 074°01'0 0.0
2017-Dec-09 02:48N 40°46' W 074°01'311.2
2017-Dec-09 02:30N 40°43' W 074°01'1 2.3
2017-Dec-09 02:01N 40°44' W 074°02'0 0.1
2017-Dec-09 01:31N 40°44' W 074°02'0 0.0
2017-Dec-09 01:01N 40°44' W 074°02'0 0.0
2017-Dec-09 00:31N 40°44' W 074°02'1 2.4
2017-Dec-09 00:00N 40°43' W 074°01'1 2.4
2017-Dec-08 23:30N 40°44' W 074°02'1 2.3
2017-Dec-08 23:00N 40°43' W 074°01'1 2.3
2017-Dec-08 22:30N 40°44' W 074°02'1 2.3
2017-Dec-08 22:00N 40°43' W 074°01'1 2.3
2017-Dec-08 21:30N 40°44' W 074°01'1 2.3
2017-Dec-08 21:00N 40°43' W 074°01'1 2.3
2017-Dec-08 20:30N 40°44' W 074°02'1 2.4
2017-Dec-08 20:01N 40°43' W 074°01'0 0.1
2017-Dec-08 19:30N 40°43' W 074°01'1 2.4
2017-Dec-08 19:00N 40°44' W 074°02'0 0.2
2017-Dec-08 18:30N 40°44' W 074°01'0 0.2
2017-Dec-08 18:01N 40°44' W 074°01'0 0.2
2017-Dec-08 17:30N 40°44' W 074°02'0 0.0
2017-Dec-08 17:00N 40°44' W 074°02'0 0.2
2017-Dec-08 16:30N 40°44' W 074°01'0 0.2
2017-Dec-08 16:00N 40°44' W 074°02'0 0.1
2017-Dec-08 15:31N 40°44' W 074°02'2 4.5
2017-Dec-08 15:01N 40°42' W 074°01'3 6.7
2017-Dec-08 14:30N 40°45' W 074°01'1 2.6
2017-Dec-08 14:00N 40°47' W 074°01'3 6.8
2017-Dec-08 13:31N 40°43' W 074°01'1 2.7
2017-Dec-08 13:00N 40°42' W 074°00'3 5.9
2017-Dec-08 12:30N 40°45' W 074°01'1 2.8
2017-Dec-08 12:00N 40°47' W 074°01'4 9.1
2017-Dec-08 11:31N 40°42' W 074°01'4 8.3
2017-Dec-08 11:00N 40°46' W 074°01'0 0.0
2017-Dec-08 00:42N 40°46' W 074°01'1 6.8
2017-Dec-08 00:31N 40°45' W 074°01'1 1.8
2017-Dec-08 00:00N 40°46' W 074°00'2 3.7
2017-Dec-07 23:30N 40°44' W 074°02'2 3.5
2017-Dec-07 22:59N 40°46' W 074°00'2 3.7
2017-Dec-07 22:30N 40°44' W 074°02'2 3.5
2017-Dec-07 22:00N 40°46' W 074°00'2 3.7
2017-Dec-07 21:31N 40°44' W 074°02'2 3.5
2017-Dec-07 21:00N 40°46' W 074°00'1 0.3
2017-Dec-07 18:29N 40°46' W 074°01'0 0.0
2017-Dec-07 15:43N 40°46' W 074°01'0 0.3
2017-Dec-07 15:29N 40°46' W 074°01'4 9.3
2017-Dec-07 15:01N 40°42' W 074°01'2 4.2
2017-Dec-07 14:31N 40°44' W 074°01'3 5.3
2017-Dec-07 14:00N 40°47' W 074°01'3 5.5
2017-Dec-07 13:31N 40°44' W 074°01'2 3.6
2017-Dec-07 13:00N 40°42' W 074°00'2 3.9
2017-Dec-07 12:30N 40°44' W 074°01'3 5.0
2017-Dec-07 12:00N 40°47' W 074°01'3 6.1
2017-Dec-07 11:31N 40°44' W 074°01'3 0.3
2017-Dec-07 02:46N 40°46' W 074°01'312.5
2017-Dec-07 02:30N 40°43' W 074°01'1 2.4
2017-Dec-07 02:01N 40°44' W 074°02'0 0.0
2017-Dec-07 01:31N 40°44' W 074°02'0 0.0
2017-Dec-07 01:00N 40°44' W 074°02'0 0.1
2017-Dec-07 00:30N 40°44' W 074°02'1 2.4
2017-Dec-07 00:00N 40°43' W 074°01'1 2.3
2017-Dec-06 23:30N 40°44' W 074°01'1 2.3
2017-Dec-06 23:00N 40°43' W 074°01'1 2.4
2017-Dec-06 22:30N 40°44' W 074°02'1 2.4
2017-Dec-06 22:00N 40°43' W 074°01'1 2.4
2017-Dec-06 21:30N 40°44' W 074°02'1 2.4
2017-Dec-06 21:00N 40°43' W 074°01'  
2017-Dec-04 02:12N 40°46' W 074°01'417.9
2017-Dec-04 02:00N 40°43' W 074°02'0 0.1
2017-Dec-04 01:30N 40°43' W 074°02'0 0.0
2017-Dec-04 01:00N 40°43' W 074°02'0 0.0
2017-Dec-04 00:30N 40°43' W 074°02'0 0.0
2017-Dec-04 00:00N 40°43' W 074°02'0 0.1
2017-Dec-03 23:30N 40°43' W 074°02'0 0.1
2017-Dec-03 23:00N 40°43' W 074°02'0 0.0
2017-Dec-03 22:30N 40°43' W 074°02'0 0.0
2017-Dec-03 22:00N 40°43' W 074°02'0 0.0
2017-Dec-03 21:31N 40°43' W 074°02'0 0.0
2017-Dec-03 21:00N 40°43' W 074°02'0 0.0
2017-Dec-03 20:30N 40°43' W 074°02'0 0.1
2017-Dec-03 20:00N 40°43' W 074°02'0 0.1
2017-Dec-03 19:30N 40°43' W 074°02'0 0.0
2017-Dec-03 19:00N 40°43' W 074°02'0 0.1
2017-Dec-03 18:30N 40°43' W 074°02'0 0.0
2017-Dec-03 18:00N 40°43' W 074°02'0 0.1
2017-Dec-03 17:30N 40°43' W 074°02'0 0.0
2017-Dec-03 17:01N 40°43' W 074°02'0 0.0
2017-Dec-03 16:30N 40°43' W 074°02'0 0.0
2017-Dec-03 16:00N 40°43' W 074°02'0 0.0
2017-Dec-03 15:30N 40°43' W 074°02'0 0.0
2017-Dec-03 15:00N 40°43' W 074°02'4 6.0
2017-Dec-03 14:25N 40°46' W 074°01'0 0.0
2017-Dec-03 02:19N 40°46' W 074°01'411.5
2017-Dec-03 02:01N 40°43' W 074°02'0 0.6
2017-Dec-03 01:31N 40°43' W 074°02'0 0.0
2017-Dec-03 01:00N 40°43' W 074°02'0 0.0
2017-Dec-03 00:31N 40°43' W 074°02'0 0.0
2017-Dec-03 00:01N 40°43' W 074°02'0 0.0
2017-Dec-02 23:30N 40°43' W 074°02'0 0.0
2017-Dec-02 23:00N 40°43' W 074°02'0 0.0
2017-Dec-02 22:30N 40°43' W 074°02'0 0.0
2017-Dec-02 22:00N 40°43' W 074°02'0 0.0
2017-Dec-02 21:30N 40°43' W 074°02'0 0.1
2017-Dec-02 21:00N 40°43' W 074°02'0 0.1
2017-Dec-02 20:30N 40°43' W 074°02'0 0.0
2017-Dec-02 20:00N 40°43' W 074°02'0 0.0
2017-Dec-02 19:31N 40°43' W 074°02'0 0.0
2017-Dec-02 19:00N 40°43' W 074°02'0 0.0
2017-Dec-02 18:30N 40°43' W 074°02'0 0.0
2017-Dec-02 18:01N 40°43' W 074°02'0 0.0
2017-Dec-02 17:31N 40°43' W 074°02'0 0.0
2017-Dec-02 17:01N 40°43' W 074°02'0 0.0
2017-Dec-02 16:30N 40°43' W 074°02'0 0.0
2017-Dec-02 16:01N 40°43' W 074°02'0 0.0
2017-Dec-02 15:31N 40°43' W 074°02'0 0.0
2017-Dec-02 15:01N 40°43' W 074°02'4 7.1
2017-Dec-02 14:30N 40°46' W 074°01'0 0.0
2017-Dec-02 00:42N 40°46' W 074°01'1 6.0
2017-Dec-02 00:30N 40°45' W 074°01'1 1.5
2017-Dec-02 00:00N 40°46' W 074°00'2 3.6
2017-Dec-01 23:30N 40°44' W 074°02'2 3.6
2017-Dec-01 23:00N 40°46' W 074°00'2 3.6
2017-Dec-01 22:31N 40°44' W 074°02'1 3.0
2017-Dec-01 22:00N 40°45' W 074°01'1 2.6
2017-Dec-01 21:30N 40°44' W 074°01'2 3.2
2017-Dec-01 21:00N 40°46' W 074°00'1 0.7
2017-Dec-01 20:05N 40°46' W 074°01'1 8.3
2017-Dec-01 20:01N 40°46' W 074°01'714.8
2017-Dec-01 19:30N 40°38' W 074°02'713.8
2017-Dec-01 18:59N 40°34' W 073°55'511.1
2017-Dec-01 18:30N 40°39' W 073°51'4 7.4
2017-Dec-01 17:59N 40°35' W 073°52'0 0.8
2017-Dec-01 17:29N 40°35' W 073°51'714.9
2017-Dec-01 17:00N 40°35' W 074°01'613.2
2017-Dec-01 16:30N 40°41' W 074°01'3 5.2
2017-Dec-01 16:01N 40°44' W 074°01'  
Track history (hours):
 
Tides and Currents Weather Stations Pressure Air Temp Water Temp Dewpoint Dewpoint Depression Visibility Wind Speed Wind Dir Waves Ship Positions

Brooklyn

Owner: PORT IMPERIAL FERRY CORP, WEEHAWKEN, NJ. More information available from US FCC via Universal Licensing System.

Last reported at 2017-Dec-11 15:23 UTC. Time now 2017-Dec-11 19:11 UTC.
Position N 40°46' W 074°01'.

Length 19 m.

Type: Passenger vessel. MMSI: 366851670.

Date/timePositionNaut miles runAvg speedWind from/ knotsBaromVisibWave heightAir tempDewpointWater temp
2017-Dec-11 15:23N 40°46' W 074°01'2 6.0
2017-Dec-11 15:00N 40°44' W 074°02'1 2.5
2017-Dec-11 14:31N 40°43' W 074°01'1 2.4
2017-Dec-11 14:00N 40°44' W 074°02'1 2.5
2017-Dec-11 13:31N 40°43' W 074°01'1 2.4
2017-Dec-11 13:00N 40°44' W 074°02'1 2.3
2017-Dec-11 12:30N 40°43' W 074°01'1 2.4
2017-Dec-11 12:00N 40°44' W 074°02'1 2.5
2017-Dec-11 11:30N 40°43' W 074°01'1 2.5
2017-Dec-11 11:00N 40°44' W 074°02'2 0.0
2017-Dec-09 10:55N 40°46' W 074°01'0 0.0
2017-Dec-09 10:30N 40°46' W 074°01'0 0.0
2017-Dec-09 10:00N 40°46' W 074°01'0 0.0
2017-Dec-09 09:30N 40°46' W 074°01'0 0.0
2017-Dec-09 08:59N 40°46' W 074°01'0 0.0
2017-Dec-09 08:30N 40°46' W 074°01'0 0.0
2017-Dec-09 08:00N 40°46' W 074°01'0 0.0
2017-Dec-09 07:29N 40°46' W 074°01'0 0.0
2017-Dec-09 02:48N 40°46' W 074°01'311.2
2017-Dec-09 02:30N 40°43' W 074°01'1 2.3
2017-Dec-09 02:01N 40°44' W 074°02'0 0.1
2017-Dec-09 01:31N 40°44' W 074°02'0 0.0
2017-Dec-09 01:01N 40°44' W 074°02'0 0.0
2017-Dec-09 00:31N 40°44' W 074°02'1 2.4
2017-Dec-09 00:00N 40°43' W 074°01'1 2.4
2017-Dec-08 23:30N 40°44' W 074°02'1 2.3
2017-Dec-08 23:00N 40°43' W 074°01'1 2.3
2017-Dec-08 22:30N 40°44' W 074°02'1 2.3
2017-Dec-08 22:00N 40°43' W 074°01'1 2.3
2017-Dec-08 21:30N 40°44' W 074°01'1 2.3
2017-Dec-08 21:00N 40°43' W 074°01'1 2.3
2017-Dec-08 20:30N 40°44' W 074°02'1 2.4
2017-Dec-08 20:01N 40°43' W 074°01'0 0.1
2017-Dec-08 19:30N 40°43' W 074°01'1 2.4
2017-Dec-08 19:00N 40°44' W 074°02'0 0.2
2017-Dec-08 18:30N 40°44' W 074°01'0 0.2
2017-Dec-08 18:01N 40°44' W 074°01'0 0.2
2017-Dec-08 17:30N 40°44' W 074°02'0 0.0
2017-Dec-08 17:00N 40°44' W 074°02'0 0.2
2017-Dec-08 16:30N 40°44' W 074°01'0 0.2
2017-Dec-08 16:00N 40°44' W 074°02'0 0.1
2017-Dec-08 15:31N 40°44' W 074°02'2 4.5
2017-Dec-08 15:01N 40°42' W 074°01'3 6.7
2017-Dec-08 14:30N 40°45' W 074°01'1 2.6
2017-Dec-08 14:00N 40°47' W 074°01'3 6.8
2017-Dec-08 13:31N 40°43' W 074°01'1 2.7
2017-Dec-08 13:00N 40°42' W 074°00'3 5.9
2017-Dec-08 12:30N 40°45' W 074°01'1 2.8
2017-Dec-08 12:00N 40°47' W 074°01'4 9.1
2017-Dec-08 11:31N 40°42' W 074°01'4 8.3
2017-Dec-08 11:00N 40°46' W 074°01'0 0.0
2017-Dec-08 00:42N 40°46' W 074°01'1 6.8
2017-Dec-08 00:31N 40°45' W 074°01'1 1.8
2017-Dec-08 00:00N 40°46' W 074°00'2 3.7
2017-Dec-07 23:30N 40°44' W 074°02'2 3.5
2017-Dec-07 22:59N 40°46' W 074°00'2 3.7
2017-Dec-07 22:30N 40°44' W 074°02'2 3.5
2017-Dec-07 22:00N 40°46' W 074°00'2 3.7
2017-Dec-07 21:31N 40°44' W 074°02'2 3.5
2017-Dec-07 21:00N 40°46' W 074°00'1 0.3
2017-Dec-07 18:29N 40°46' W 074°01'0 0.0
2017-Dec-07 15:43N 40°46' W 074°01'0 0.3
2017-Dec-07 15:29N 40°46' W 074°01'4 9.3
2017-Dec-07 15:01N 40°42' W 074°01'2 4.2
2017-Dec-07 14:31N 40°44' W 074°01'3 5.3
2017-Dec-07 14:00N 40°47' W 074°01'3 5.5
2017-Dec-07 13:31N 40°44' W 074°01'2 3.6
2017-Dec-07 13:00N 40°42' W 074°00'2 3.9
2017-Dec-07 12:30N 40°44' W 074°01'3 5.0
2017-Dec-07 12:00N 40°47' W 074°01'3 6.1
2017-Dec-07 11:31N 40°44' W 074°01'3 0.3
2017-Dec-07 02:46N 40°46' W 074°01'312.5
2017-Dec-07 02:30N 40°43' W 074°01'1 2.4
2017-Dec-07 02:01N 40°44' W 074°02'0 0.0
2017-Dec-07 01:31N 40°44' W 074°02'0 0.0
2017-Dec-07 01:00N 40°44' W 074°02'0 0.1
2017-Dec-07 00:30N 40°44' W 074°02'1 2.4
2017-Dec-07 00:00N 40°43' W 074°01'1 2.3
2017-Dec-06 23:30N 40°44' W 074°01'1 2.3
2017-Dec-06 23:00N 40°43' W 074°01'1 2.4
2017-Dec-06 22:30N 40°44' W 074°02'1 2.4
2017-Dec-06 22:00N 40°43' W 074°01'1 2.4
2017-Dec-06 21:30N 40°44' W 074°02'1 2.4
2017-Dec-06 21:00N 40°43' W 074°01'  
2017-Dec-04 02:12N 40°46' W 074°01'417.9
2017-Dec-04 02:00N 40°43' W 074°02'0 0.1
2017-Dec-04 01:30N 40°43' W 074°02'0 0.0
2017-Dec-04 01:00N 40°43' W 074°02'0 0.0
2017-Dec-04 00:30N 40°43' W 074°02'0 0.0
2017-Dec-04 00:00N 40°43' W 074°02'0 0.1
2017-Dec-03 23:30N 40°43' W 074°02'0 0.1
2017-Dec-03 23:00N 40°43' W 074°02'0 0.0
2017-Dec-03 22:30N 40°43' W 074°02'0 0.0
2017-Dec-03 22:00N 40°43' W 074°02'0 0.0
2017-Dec-03 21:31N 40°43' W 074°02'0 0.0
2017-Dec-03 21:00N 40°43' W 074°02'0 0.0
2017-Dec-03 20:30N 40°43' W 074°02'0 0.1
2017-Dec-03 20:00N 40°43' W 074°02'0 0.1
2017-Dec-03 19:30N 40°43' W 074°02'0 0.0
2017-Dec-03 19:00N 40°43' W 074°02'0 0.1
2017-Dec-03 18:30N 40°43' W 074°02'0 0.0
2017-Dec-03 18:00N 40°43' W 074°02'0 0.1
2017-Dec-03 17:30N 40°43' W 074°02'0 0.0
2017-Dec-03 17:01N 40°43' W 074°02'0 0.0
2017-Dec-03 16:30N 40°43' W 074°02'0 0.0
2017-Dec-03 16:00N 40°43' W 074°02'0 0.0
2017-Dec-03 15:30N 40°43' W 074°02'0 0.0
2017-Dec-03 15:00N 40°43' W 074°02'4 6.0
2017-Dec-03 14:25N 40°46' W 074°01'0 0.0
2017-Dec-03 02:19N 40°46' W 074°01'411.5
2017-Dec-03 02:01N 40°43' W 074°02'0 0.6
2017-Dec-03 01:31N 40°43' W 074°02'0 0.0
2017-Dec-03 01:00N 40°43' W 074°02'0 0.0
2017-Dec-03 00:31N 40°43' W 074°02'0 0.0
2017-Dec-03 00:01N 40°43' W 074°02'0 0.0
2017-Dec-02 23:30N 40°43' W 074°02'0 0.0
2017-Dec-02 23:00N 40°43' W 074°02'0 0.0
2017-Dec-02 22:30N 40°43' W 074°02'0 0.0
2017-Dec-02 22:00N 40°43' W 074°02'0 0.0
2017-Dec-02 21:30N 40°43' W 074°02'0 0.1
2017-Dec-02 21:00N 40°43' W 074°02'0 0.1
2017-Dec-02 20:30N 40°43' W 074°02'0 0.0
2017-Dec-02 20:00N 40°43' W 074°02'0 0.0
2017-Dec-02 19:31N 40°43' W 074°02'0 0.0
2017-Dec-02 19:00N 40°43' W 074°02'0 0.0
2017-Dec-02 18:30N 40°43' W 074°02'0 0.0
2017-Dec-02 18:01N 40°43' W 074°02'0 0.0
2017-Dec-02 17:31N 40°43' W 074°02'0 0.0
2017-Dec-02 17:01N 40°43' W 074°02'0 0.0
2017-Dec-02 16:30N 40°43' W 074°02'0 0.0
2017-Dec-02 16:01N 40°43' W 074°02'0 0.0
2017-Dec-02 15:31N 40°43' W 074°02'0 0.0
2017-Dec-02 15:01N 40°43' W 074°02'4 7.1
2017-Dec-02 14:30N 40°46' W 074°01'0 0.0
2017-Dec-02 00:42N 40°46' W 074°01'1 6.0
2017-Dec-02 00:30N 40°45' W 074°01'1 1.5
2017-Dec-02 00:00N 40°46' W 074°00'2 3.6
2017-Dec-01 23:30N 40°44' W 074°02'2 3.6
2017-Dec-01 23:00N 40°46' W 074°00'2 3.6
2017-Dec-01 22:31N 40°44' W 074°02'1 3.0
2017-Dec-01 22:00N 40°45' W 074°01'1 2.6
2017-Dec-01 21:30N 40°44' W 074°01'2 3.2
2017-Dec-01 21:00N 40°46' W 074°00'1 0.7
2017-Dec-01 20:05N 40°46' W 074°01'1 8.3
2017-Dec-01 20:01N 40°46' W 074°01'714.8
2017-Dec-01 19:30N 40°38' W 074°02'713.8
2017-Dec-01 18:59N 40°34' W 073°55'511.1
2017-Dec-01 18:30N 40°39' W 073°51'4 7.4
2017-Dec-01 17:59N 40°35' W 073°52'0 0.8
2017-Dec-01 17:29N 40°35' W 073°51'714.9
2017-Dec-01 17:00N 40°35' W 074°01'613.2
2017-Dec-01 16:30N 40°41' W 074°01'3 5.2
2017-Dec-01 16:01N 40°44' W 074°01'  

Dump ship's entire track history